Airport View

Enter AWOS ICAO identifier for current METAR.

ex. KFNL

KSTK 140130Z AUTO 32005KT 10SM CLR M01/M03 A2995 RMK AO2

14 Dec 2019 02:05

Frequency: 118.525

Phone: 970-526-3009

Other Area AWOS: KAKO - KFMM - KSNY - KIBM

TAF KSNY 132324Z 1400/1424 33012KT P6SM BKN040 FM140600 30008KT P6SM BKN060 FM141500 21006KT 4SM -SN OVC020